createdAt,value
2022-12-14T00:02:32.052Z,15.23
2022-12-14T00:05:37.511Z,15.10
2022-12-14T00:08:42.064Z,15.73
2022-12-14T00:11:44.740Z,20.70
2022-12-14T00:14:47.928Z,13.17
2022-12-14T00:17:50.933Z,16.40
2022-12-14T00:20:55.170Z,17.85
2022-12-14T00:23:59.996Z,18.70
2022-12-14T00:27:02.917Z,16.60
2022-12-14T00:30:07.547Z,15.30
2022-12-14T00:33:10.674Z,15.10
2022-12-14T00:36:16.068Z,16.70
2022-12-14T00:39:18.826Z,17.50
2022-12-14T00:42:22.098Z,13.23
2022-12-14T00:45:24.891Z,18.42
2022-12-14T00:48:28.846Z,15.83
2022-12-14T00:51:33.378Z,18.03
2022-12-14T00:54:35.991Z,13.03
2022-12-14T00:57:38.659Z,17.70
2022-12-14T01:00:41.897Z,18.13
2022-12-14T01:03:45.645Z,17.77
2022-12-14T01:06:51.353Z,15.20
2022-12-14T01:09:53.911Z,17.53
2022-12-14T01:12:56.452Z,16.27
2022-12-14T01:16:04.031Z,15.27
2022-12-14T01:19:07.279Z,17.33
2022-12-14T01:22:11.600Z,15.77
2022-12-14T01:25:14.439Z,14.27
2022-12-14T01:28:17.145Z,17.97
2022-12-14T01:31:22.464Z,14.23
2022-12-14T01:34:25.399Z,13.83
2022-12-14T01:37:30.016Z,15.80
2022-12-14T01:40:32.650Z,16.53
2022-12-14T01:43:49.476Z,14.27
2022-12-14T01:46:54.303Z,13.53
2022-12-14T01:50:00.379Z,15.50
2022-12-14T01:53:07.398Z,14.40
2022-12-14T01:56:10.489Z,15.77
2022-12-14T01:59:15.731Z,17.80
2022-12-14T02:02:19.784Z,14.87
2022-12-14T02:05:23.783Z,17.40
2022-12-14T02:11:35.054Z,16.85
2022-12-14T02:14:38.749Z,15.07
2022-12-14T02:17:43.353Z,15.35
2022-12-14T02:20:57.401Z,15.03
2022-12-14T02:24:24.735Z,16.50
2022-12-14T02:27:42.475Z,15.43
2022-12-14T02:30:52.564Z,17.90
2022-12-14T02:33:59.012Z,15.43
2022-12-14T02:37:06.382Z,15.10
2022-12-14T02:40:20.330Z,14.37
2022-12-14T02:43:28.350Z,21.25
2022-12-14T02:46:39.603Z,15.87
2022-12-14T02:49:54.482Z,16.53
2022-12-14T02:53:02.711Z,15.20
2022-12-14T02:56:09.810Z,15.80
2022-12-14T02:59:13.085Z,16.23
2022-12-14T03:02:17.941Z,18.52
2022-12-14T03:05:22.979Z,16.27
2022-12-14T03:08:27.600Z,19.37
2022-12-14T03:11:34.408Z,18.30
2022-12-14T03:14:39.916Z,18.30
2022-12-14T03:17:46.276Z,18.53
2022-12-14T03:20:53.539Z,22.73
2022-12-14T03:23:57.020Z,14.90
2022-12-14T03:27:02.794Z,19.35
2022-12-14T03:30:08.692Z,16.47
2022-12-14T03:33:16.208Z,18.80
2022-12-14T03:36:23.162Z,21.57
2022-12-14T03:39:29.092Z,14.97
2022-12-14T03:42:34.463Z,19.27
2022-12-14T03:45:42.360Z,18.20
2022-12-14T03:48:49.636Z,18.20
2022-12-14T03:51:58.008Z,18.87
2022-12-14T03:55:11.004Z,23.27
2022-12-14T03:58:28.440Z,19.57
2022-12-14T04:01:40.648Z,19.07
2022-12-14T04:04:49.204Z,18.93
2022-12-14T04:07:57.137Z,19.27
2022-12-14T04:11:19.852Z,20.07
2022-12-14T04:14:42.518Z,25.30
2022-12-14T04:18:04.585Z,19.40
2022-12-14T04:21:13.980Z,21.57
2022-12-14T04:24:42.050Z,23.87
2022-12-14T04:27:49.635Z,20.00
2022-12-14T04:30:51.430Z,19.07
2022-12-14T04:33:56.091Z,20.10
2022-12-14T04:37:02.125Z,23.77
2022-12-14T04:40:07.918Z,20.93
2022-12-14T04:43:14.413Z,19.37
2022-12-14T04:46:19.343Z,22.77
2022-12-14T04:49:25.155Z,19.37
2022-12-14T04:52:33.057Z,24.27
2022-12-14T04:55:38.234Z,20.03
2022-12-14T04:58:41.703Z,20.10
2022-12-14T05:01:49.942Z,24.15
2022-12-14T05:04:58.325Z,20.53
2022-12-14T05:08:09.773Z,21.80
2022-12-14T05:11:50.116Z,17.33
2022-12-14T05:14:44.376Z,23.67
2022-12-14T05:17:47.370Z,20.03
2022-12-14T05:20:50.318Z,20.15
2022-12-14T05:23:54.492Z,22.83
2022-12-14T05:26:57.231Z,22.43
2022-12-14T05:30:00.209Z,22.87
2022-12-14T05:33:03.244Z,22.45
2022-12-14T05:36:06.518Z,18.38
2022-12-14T05:39:10.517Z,22.50
2022-12-14T05:42:13.177Z,22.07
2022-12-14T05:45:16.072Z,21.07
2022-12-14T05:48:18.709Z,23.23
2022-12-14T05:51:21.319Z,22.80
2022-12-14T05:54:25.262Z,29.40
2022-12-14T06:00:30.356Z,24.63
2022-12-14T06:03:33.088Z,26.50
2022-12-14T06:06:35.850Z,26.13
2022-12-14T06:09:40.069Z,21.43
2022-12-14T06:12:43.545Z,24.67
2022-12-14T06:15:46.234Z,27.42
2022-12-14T06:18:51.131Z,23.07
2022-12-14T06:21:53.766Z,28.97
2022-12-14T06:24:57.965Z,29.17
2022-12-14T06:28:00.826Z,27.17
2022-12-14T06:31:03.985Z,26.80
2022-12-14T06:34:06.738Z,23.55
2022-12-14T06:37:09.411Z,27.97
2022-12-14T06:40:13.857Z,25.13
2022-12-14T06:43:16.561Z,26.70
2022-12-14T06:46:21.224Z,29.37
2022-12-14T06:49:23.893Z,25.23
2022-12-14T06:52:27.363Z,25.23
2022-12-14T06:55:32.092Z,28.25
2022-12-14T06:58:34.804Z,27.07
2022-12-14T07:01:38.331Z,30.20
2022-12-14T07:04:42.977Z,29.77
2022-12-14T07:07:45.873Z,29.90
2022-12-14T07:10:49.904Z,23.53
2022-12-14T07:13:52.651Z,27.10
2022-12-14T07:16:55.392Z,24.93
2022-12-14T07:19:58.091Z,30.30
2022-12-14T07:23:00.818Z,27.47
2022-12-14T07:26:06.999Z,31.80
2022-12-14T07:29:12.006Z,33.50
2022-12-14T07:32:15.605Z,26.20
2022-12-14T07:35:18.439Z,34.63
2022-12-14T07:38:21.134Z,29.77
2022-12-14T07:41:26.850Z,32.73
2022-12-14T07:44:29.399Z,32.47
2022-12-14T07:47:32.251Z,31.80
2022-12-14T07:50:35.582Z,27.80
2022-12-14T07:53:39.385Z,28.20
2022-12-14T07:59:46.608Z,29.70
2022-12-14T08:02:49.477Z,27.60
2022-12-14T08:05:52.651Z,28.38
2022-12-14T08:08:55.801Z,27.80
2022-12-14T08:12:00.274Z,30.17
2022-12-14T08:15:03.136Z,34.83
2022-12-14T08:18:05.772Z,28.40
2022-12-14T08:21:09.382Z,31.30
2022-12-14T08:24:12.669Z,30.80
2022-12-14T08:27:16.861Z,33.15
2022-12-14T08:30:19.496Z,32.83
2022-12-14T08:33:23.251Z,32.57
2022-12-14T08:36:28.061Z,33.25
2022-12-14T08:39:30.729Z,31.17
2022-12-14T08:42:34.938Z,31.80
2022-12-14T08:45:37.538Z,27.83
2022-12-14T08:48:40.187Z,27.17
2022-12-14T08:51:43.087Z,32.20
2022-12-14T08:54:45.731Z,31.70
2022-12-14T08:57:50.017Z,36.27
2022-12-14T09:01:01.442Z,29.57
2022-12-14T09:04:05.626Z,31.00
2022-12-14T09:07:08.339Z,33.93
2022-12-14T09:10:11.392Z,34.90
2022-12-14T09:13:15.789Z,29.33
2022-12-14T09:16:20.589Z,34.13
2022-12-14T09:19:23.511Z,36.33
2022-12-14T09:22:27.173Z,33.20
2022-12-14T09:25:29.813Z,39.13
2022-12-14T09:28:36.933Z,38.20
2022-12-14T09:31:39.559Z,38.87
2022-12-14T09:34:42.339Z,41.43
2022-12-14T09:37:45.105Z,34.93
2022-12-14T09:40:57.373Z,33.43
2022-12-14T09:44:09.626Z,37.37
2022-12-14T09:47:19.172Z,32.57
2022-12-14T09:50:22.876Z,33.07
2022-12-14T09:53:26.310Z,30.05
2022-12-14T09:56:29.035Z,32.90
2022-12-14T09:59:33.966Z,35.80
2022-12-14T10:02:44.047Z,34.43
2022-12-14T10:05:59.579Z,32.97
2022-12-14T10:09:10.259Z,33.40
2022-12-14T10:12:21.412Z,38.13
2022-12-14T10:15:29.955Z,35.97
2022-12-14T10:19:02.619Z,34.63
2022-12-14T10:22:12.230Z,34.87
2022-12-14T10:25:16.845Z,35.00
2022-12-14T10:28:21.934Z,34.07
2022-12-14T10:31:31.821Z,38.60
2022-12-14T10:34:35.857Z,34.97
2022-12-14T10:40:49.432Z,33.87
2022-12-14T10:43:57.415Z,39.07
2022-12-14T10:47:05.447Z,37.67
2022-12-14T10:50:18.769Z,41.40
2022-12-14T10:53:25.091Z,40.75
2022-12-14T10:56:31.650Z,41.20
2022-12-14T10:59:40.638Z,42.43
2022-12-14T11:02:52.001Z,32.27
2022-12-14T11:05:59.414Z,38.60
2022-12-14T11:09:02.318Z,35.63
2022-12-14T11:12:07.762Z,36.77
2022-12-14T11:15:25.375Z,34.27
2022-12-14T11:18:32.199Z,37.00
2022-12-14T11:21:37.293Z,35.30
2022-12-14T11:24:47.755Z,35.47
2022-12-14T11:27:50.749Z,39.57
2022-12-14T11:30:56.904Z,37.30
2022-12-14T11:34:02.357Z,34.07
2022-12-14T11:37:15.832Z,37.20
2022-12-14T11:40:25.138Z,41.75
2022-12-14T11:43:29.490Z,40.13
2022-12-14T11:46:44.982Z,40.00
2022-12-14T11:49:51.279Z,40.13
2022-12-14T11:53:11.025Z,39.33
2022-12-14T11:56:17.042Z,37.23
2022-12-14T11:59:20.394Z,37.57
2022-12-14T12:02:28.549Z,35.13
2022-12-14T12:05:34.805Z,34.00
2022-12-14T12:08:39.070Z,36.90
2022-12-14T12:11:46.138Z,39.23
2022-12-14T12:14:55.652Z,35.43
2022-12-14T12:18:02.685Z,37.07
2022-12-14T12:21:11.239Z,38.70
2022-12-14T12:24:18.165Z,39.77
2022-12-14T12:27:21.412Z,37.57
2022-12-14T12:30:28.699Z,42.47
2022-12-14T12:33:36.294Z,42.33
2022-12-14T12:36:56.857Z,40.57
2022-12-14T12:40:06.271Z,43.17
2022-12-14T12:43:14.445Z,38.73
2022-12-14T12:46:19.799Z,42.30
2022-12-14T12:49:23.304Z,33.83
2022-12-14T12:52:30.507Z,38.70
2022-12-14T12:55:37.422Z,38.17
2022-12-14T12:58:40.749Z,40.77
2022-12-14T13:01:46.076Z,36.58
2022-12-14T13:04:52.840Z,40.13
2022-12-14T13:07:59.735Z,38.90
2022-12-14T13:14:31.205Z,38.07
2022-12-14T13:17:39.373Z,38.00
2022-12-14T13:20:42.110Z,35.77
2022-12-14T13:23:46.256Z,30.57
2022-12-14T13:27:15.297Z,46.23
2022-12-14T13:30:29.668Z,47.63
2022-12-14T13:33:50.886Z,41.97
2022-12-14T13:37:16.339Z,42.40
2022-12-14T13:40:54.774Z,44.10
2022-12-14T13:44:14.237Z,44.93
2022-12-14T13:47:23.409Z,41.83
2022-12-14T13:50:41.900Z,36.97
2022-12-14T13:53:55.093Z,38.60
2022-12-14T13:57:05.823Z,43.90
2022-12-14T14:00:37.797Z,39.20
2022-12-14T14:03:46.099Z,39.33
2022-12-14T14:06:50.436Z,42.20
2022-12-14T14:10:01.700Z,39.37
2022-12-14T14:13:44.855Z,27.87
2022-12-14T14:16:57.579Z,37.57
2022-12-14T14:20:01.779Z,47.83
2022-12-14T14:23:30.234Z,45.17
2022-12-14T14:26:34.778Z,39.77
2022-12-14T14:29:38.196Z,41.23
2022-12-14T14:32:43.414Z,39.25
2022-12-14T14:35:49.728Z,39.17
2022-12-14T14:38:53.345Z,36.83
2022-12-14T14:45:01.367Z,35.63
2022-12-14T14:48:11.698Z,43.73
2022-12-14T14:51:20.954Z,39.30
2022-12-14T14:57:57.872Z,40.10
2022-12-14T15:01:19.441Z,43.17
2022-12-14T15:04:24.363Z,47.83
2022-12-14T15:07:30.246Z,43.60
2022-12-14T15:10:36.374Z,40.30
2022-12-14T15:13:46.624Z,37.60
2022-12-14T15:16:49.280Z,42.30
2022-12-14T15:19:54.881Z,29.10
2022-12-14T15:22:58.406Z,19.60
2022-12-14T15:26:03.169Z,35.40
2022-12-14T15:29:06.336Z,35.13
2022-12-14T15:32:16.147Z,34.80
2022-12-14T15:35:24.683Z,39.67
2022-12-14T15:38:31.028Z,28.37
2022-12-14T15:41:34.570Z,33.13
2022-12-14T15:44:37.411Z,28.38
2022-12-14T15:47:40.179Z,29.87
2022-12-14T15:50:45.737Z,35.90
2022-12-14T15:53:50.875Z,38.93
2022-12-14T15:56:57.097Z,33.27
2022-12-14T16:00:00.052Z,39.53
2022-12-14T16:03:06.157Z,24.00
2022-12-14T16:06:11.083Z,36.27
2022-12-14T16:09:20.269Z,34.97
2022-12-14T16:12:26.199Z,32.40
2022-12-14T16:15:30.132Z,30.40
2022-12-14T16:21:37.417Z,36.30
2022-12-14T16:24:54.000Z,34.40
2022-12-14T16:27:57.395Z,29.07
2022-12-14T16:31:02.793Z,35.78
2022-12-14T16:34:09.440Z,34.67
2022-12-14T16:37:34.034Z,36.77
2022-12-14T16:40:39.008Z,32.60
2022-12-14T16:43:42.969Z,37.10
2022-12-14T16:49:55.971Z,26.90
2022-12-14T16:53:16.289Z,33.50
2022-12-14T16:56:20.641Z,30.87
2022-12-14T16:59:24.787Z,36.37
2022-12-14T17:02:31.107Z,36.63
2022-12-14T17:05:36.092Z,32.07
2022-12-14T17:08:40.675Z,37.53
2022-12-14T17:11:43.508Z,35.17
2022-12-14T17:14:49.872Z,36.07
2022-12-14T17:17:55.016Z,29.90
2022-12-14T17:20:57.945Z,32.93
2022-12-14T17:24:02.196Z,31.05
2022-12-14T17:27:05.257Z,32.47
2022-12-14T17:30:09.143Z,28.13
2022-12-14T17:36:14.490Z,33.80
2022-12-14T17:39:18.680Z,35.67
2022-12-14T17:42:22.938Z,20.83
2022-12-14T17:45:27.351Z,28.47
2022-12-14T17:48:29.994Z,30.40
2022-12-14T17:51:33.008Z,29.70
2022-12-14T17:54:37.006Z,28.77
2022-12-14T17:57:39.871Z,30.20
2022-12-14T18:01:01.122Z,29.20
2022-12-14T18:04:04.133Z,31.63
2022-12-14T18:07:07.040Z,30.95
2022-12-14T18:10:14.863Z,33.55
2022-12-14T18:13:17.533Z,28.90
2022-12-14T18:16:22.096Z,28.47
2022-12-14T18:19:25.045Z,32.40
2022-12-14T18:22:27.958Z,30.00
2022-12-14T18:25:33.833Z,32.33
2022-12-14T18:28:37.573Z,25.77
2022-12-14T18:31:40.461Z,32.13
2022-12-14T18:34:43.245Z,26.73
2022-12-14T18:37:49.481Z,29.03
2022-12-14T18:40:55.168Z,32.73
2022-12-14T18:43:57.889Z,30.47
2022-12-14T18:47:20.493Z,32.43
2022-12-14T18:50:24.354Z,31.30
2022-12-14T18:56:31.579Z,30.47
2022-12-14T18:59:37.819Z,38.13
2022-12-14T19:02:46.965Z,31.43
2022-12-14T19:05:53.197Z,30.17
2022-12-14T19:08:56.995Z,33.45
2022-12-14T19:15:03.813Z,26.38
2022-12-14T19:18:06.595Z,21.98
2022-12-14T19:21:09.129Z,34.87
2022-12-14T19:24:13.623Z,34.90
2022-12-14T19:27:30.296Z,31.47
2022-12-14T19:30:40.851Z,30.88
2022-12-14T19:33:43.541Z,34.25
2022-12-14T19:36:46.362Z,37.87
2022-12-14T19:39:49.109Z,28.73
2022-12-14T19:42:53.046Z,35.37
2022-12-14T19:48:59.853Z,32.77
2022-12-14T19:52:02.469Z,36.27
2022-12-14T19:55:05.704Z,34.33
2022-12-14T19:58:09.642Z,37.17
2022-12-14T20:01:13.532Z,36.90
2022-12-14T20:07:19.284Z,35.10
2022-12-14T20:10:22.056Z,36.13
2022-12-14T20:13:28.493Z,39.83
2022-12-14T20:16:31.301Z,37.90
2022-12-14T20:19:34.074Z,39.90
2022-12-14T20:22:36.911Z,35.30
2022-12-14T20:25:39.515Z,36.57
2022-12-14T20:28:43.755Z,41.80
2022-12-14T20:31:46.642Z,40.37
2022-12-14T20:34:49.744Z,41.28
2022-12-14T20:37:53.727Z,46.78
2022-12-14T20:40:56.639Z,39.60
2022-12-14T20:44:02.097Z,37.38
2022-12-14T20:47:05.054Z,38.80
2022-12-14T20:50:08.176Z,37.65
2022-12-14T20:53:11.067Z,38.28
2022-12-14T20:56:14.227Z,37.50
2022-12-14T20:59:18.646Z,40.42
2022-12-14T21:02:21.709Z,37.43
2022-12-14T21:05:24.819Z,36.63
2022-12-14T21:08:27.853Z,39.53
2022-12-14T21:11:48.451Z,37.65
2022-12-14T21:14:55.402Z,39.97
2022-12-14T21:17:58.252Z,38.10
2022-12-14T21:21:05.686Z,47.80
2022-12-14T21:24:09.714Z,39.10
2022-12-14T21:27:17.023Z,40.93
2022-12-14T21:30:21.341Z,34.30
2022-12-14T21:33:24.006Z,38.13
2022-12-14T21:36:26.653Z,39.40
2022-12-14T21:39:29.203Z,42.60
2022-12-14T21:42:33.631Z,40.30
2022-12-14T21:45:37.952Z,45.08
2022-12-14T21:48:41.394Z,43.70
2022-12-14T21:51:44.397Z,43.08
2022-12-14T21:54:47.081Z,41.15
2022-12-14T21:58:07.471Z,43.57
2022-12-14T22:01:11.567Z,43.50
2022-12-14T22:04:14.168Z,34.50
2022-12-14T22:07:17.739Z,46.47
2022-12-14T22:10:24.888Z,42.13
2022-12-14T22:13:29.130Z,42.23
2022-12-14T22:16:35.271Z,42.47
2022-12-14T22:19:38.293Z,42.17
2022-12-14T22:22:41.149Z,40.85
2022-12-14T22:25:50.071Z,41.07
2022-12-14T22:28:53.372Z,46.00
2022-12-14T22:31:57.739Z,40.35
2022-12-14T22:35:01.555Z,43.80
2022-12-14T22:41:09.603Z,40.60
2022-12-14T22:44:13.510Z,49.08
2022-12-14T22:50:20.834Z,42.47
2022-12-14T22:53:23.679Z,37.53
2022-12-14T22:56:29.335Z,43.30
2022-12-14T22:59:37.761Z,43.07
2022-12-14T23:02:47.601Z,40.20
2022-12-14T23:05:51.240Z,42.93
2022-12-14T23:09:11.386Z,42.43
2022-12-14T23:12:31.452Z,42.13
2022-12-14T23:15:52.003Z,41.60
2022-12-14T23:19:13.762Z,42.30
2022-12-14T23:22:34.047Z,42.23
2022-12-14T23:25:54.330Z,40.00
2022-12-14T23:29:14.803Z,38.73
2022-12-14T23:32:35.277Z,46.07
2022-12-14T23:35:56.719Z,41.13
2022-12-14T23:39:17.200Z,38.93
2022-12-14T23:42:37.423Z,39.40
2022-12-14T23:45:57.875Z,38.80
2022-12-14T23:49:18.277Z,35.83
2022-12-14T23:52:39.805Z,43.10
2022-12-14T23:56:00.205Z,40.83
2022-12-14T23:59:22.708Z,43.33
